Time;durP1;ratioP1;P1;durP2;ratioP2;P2;SDS_P1;SDS_P2;PMS_P1;PMS_P2;Temp;Humidity;BMP_temperature;BMP_pressure;BME280_temperature;BME280_humidity;BME280_pressure;Samples;Min_cycle;Max_cycle;Signal;HPM_P1;HPM_P2
2024/02/21 00:00:54;;;;;;;9.45;0.93;;;;;;;9.50;77.68;100390.63;4983855;28;20140;-47
2024/02/21 00:03:21;;;;;;;6.43;1.17;;;;;;;9.52;77.53;100388.91;4984552;28;20090;-48
2024/02/21 00:05:48;;;;;;;5.72;1.52;;;;;;;9.54;77.88;100375.13;4987130;28;20141;-48
2024/02/21 00:08:14;;;;;;;3.97;1.58;;;;;;;9.51;77.46;100368.22;4985490;28;20412;-46
2024/02/21 00:10:41;;;;;;;6.78;1.10;;;;;;;9.51;77.58;100370.81;4986968;28;20046;-44
2024/02/21 00:13:08;;;;;;;10.32;3.05;;;;;;;9.55;77.48;100371.72;4984790;28;20053;-46
2024/02/21 00:15:35;;;;;;;8.48;2.67;;;;;;;9.56;77.22;100368.25;4986645;28;20525;-47
2024/02/21 00:18:02;;;;;;;4.80;0.85;;;;;;;9.55;77.32;100371.72;4985790;28;20046;-46
2024/02/21 00:20:29;;;;;;;4.10;1.23;;;;;;;9.57;77.47;100369.97;4987216;28;20054;-46
2024/02/21 00:22:55;;;;;;;4.30;1.23;;;;;;;9.56;77.22;100352.75;4984837;28;20526;-47
2024/02/21 00:25:22;;;;;;;5.63;1.40;;;;;;;9.59;77.56;100352.78;4981842;28;20049;-45
2024/02/21 00:27:49;;;;;;;8.95;2.65;;;;;;;9.57;77.98;100354.47;4986702;28;20050;-45
2024/02/21 00:30:16;;;;;;;7.78;1.98;;;;;;;9.59;77.77;100352.78;4986736;28;20062;-49
2024/02/21 00:32:42;;;;;;;7.13;2.17;;;;;;;9.57;78.06;100346.72;4986840;28;20149;-43
2024/02/21 00:35:09;;;;;;;5.75;1.55;;;;;;;9.59;77.30;100334.66;4986167;28;20053;-55
2024/02/21 00:37:37;;;;;;;11.70;2.13;;;;;;;9.58;77.77;100338.09;4986324;28;20038;-46
2024/02/21 00:40:05;;;;;;;7.63;2.25;;;;;;;9.58;77.39;100333.78;4989464;28;20101;-45
2024/02/21 00:42:31;;;;;;;8.30;1.73;;;;;;;9.58;78.13;100335.50;4990717;28;20057;-48
2024/02/21 00:44:58;;;;;;;11.48;2.05;;;;;;;9.58;77.57;100331.19;4987687;28;20054;-49
2024/02/21 00:47:25;;;;;;;7.18;1.70;;;;;;;9.56;77.54;100324.31;4988553;28;20523;-47
2024/02/21 00:49:52;;;;;;;7.38;3.10;;;;;;;9.59;77.84;100322.59;4989636;28;20094;-47
2024/02/21 00:52:18;;;;;;;9.50;1.77;;;;;;;9.59;77.96;100319.16;4990402;28;20054;-47
2024/02/21 00:54:45;;;;;;;6.95;3.08;;;;;;;9.57;78.03;100308.78;4988930;28;20503;-51
2024/02/21 00:57:20;;;;;;;5.82;3.10;;;;;;;9.58;77.29;100319.97;4990317;28;20049;-45
2024/02/21 00:59:46;;;;;;;7.65;3.00;;;;;;;9.59;77.32;100324.31;4990155;28;20050;-46
2024/02/21 01:02:14;;;;;;;4.57;1.45;;;;;;;9.57;77.28;100324.31;4986434;28;20046;-46
2024/02/21 01:04:41;;;;;;;9.50;1.35;;;;;;;9.58;77.31;100314.81;4988514;28;20125;-43
2024/02/21 01:07:10;;;;;;;8.55;1.95;;;;;;;9.59;77.44;100306.22;4989736;28;20050;-47
2024/02/21 01:09:37;;;;;;;5.85;4.78;;;;;;;9.57;77.79;100308.78;4989206;28;20050;-47
2024/02/21 01:12:07;;;;;;;5.05;1.63;;;;;;;9.59;77.43;100301.06;4989193;28;20108;-49
2024/02/21 01:14:34;;;;;;;11.43;2.15;;;;;;;9.56;77.45;100301.88;4990427;28;20054;-47
2024/02/21 01:17:02;;;;;;;5.93;1.17;;;;;;;9.56;77.18;100285.50;4989599;28;20050;-47
2024/02/21 01:19:29;;;;;;;8.95;3.22;;;;;;;9.55;77.67;100291.56;4988752;28;20134;-47
2024/02/21 01:21:57;;;;;;;11.77;1.63;;;;;;;9.56;77.79;100290.69;4988968;28;20594;-50
2024/02/21 01:24:24;;;;;;;11.77;2.58;;;;;;;9.55;77.72;100284.63;4988769;28;20471;-45
2024/02/21 01:26:51;;;;;;;7.47;1.50;;;;;;;9.52;77.78;100279.44;4991050;28;20061;-48
2024/02/21 01:29:20;;;;;;;7.72;1.33;;;;;;;9.51;77.16;100270.84;4989346;28;20042;-45
2024/02/21 01:31:51;;;;;;;10.10;1.95;;;;;;;9.51;77.24;100257.91;4987563;28;20518;-46
2024/02/21 01:34:18;;;;;;;4.50;0.82;;;;;;;9.47;77.90;100245.81;4987306;28;20050;-46
2024/02/21 01:36:46;;;;;;;10.73;3.03;;;;;;;9.47;77.07;100245.81;4988759;28;20073;-48
2024/02/21 01:39:16;;;;;;;2.47;2.00;;;;;;;9.47;78.27;100235.47;4989492;28;20038;-47
2024/02/21 01:41:45;;;;;;;5.28;1.20;;;;;;;9.46;77.64;100223.38;4985969;28;20080;-46
2024/02/21 01:44:13;;;;;;;5.15;1.27;;;;;;;9.49;76.78;100222.56;4988140;28;20137;-47
2024/02/21 01:46:41;;;;;;;7.82;1.95;;;;;;;9.44;78.21;100219.94;4989254;28;20053;-48
2024/02/21 01:49:09;;;;;;;3.60;1.45;;;;;;;9.42;77.73;100213.91;4987701;28;20161;-47
2024/02/21 01:51:37;;;;;;;5.22;1.35;;;;;;;9.41;77.61;100204.41;4986826;28;20499;-49
2024/02/21 01:54:04;;;;;;;5.32;1.63;;;;;;;9.43;77.92;100194.97;4982065;28;20050;-46
2024/02/21 01:56:31;;;;;;;15.48;1.15;;;;;;;9.39;78.06;100185.44;4989005;28;20051;-49
2024/02/21 01:58:58;;;;;;;1.42;0.70;;;;;;;9.36;78.18;100175.09;4986857;28;20042;-46
2024/02/21 02:01:25;;;;;;;4.07;1.02;;;;;;;9.29;78.61;100168.19;4983861;28;20100;-45
2024/02/21 02:03:52;;;;;;;1.63;1.23;;;;;;;9.33;78.41;100154.41;4988607;28;20057;-47
2024/02/21 02:06:19;;;;;;;3.05;1.20;;;;;;;9.33;78.57;100159.59;4988732;28;20046;-46
2024/02/21 02:08:46;;;;;;;7.20;1.50;;;;;;;9.34;78.83;100157.00;4984218;28;20050;-49
2024/02/21 02:11:14;;;;;;;3.20;2.28;;;;;;;9.32;78.51;100150.09;4988512;28;20062;-46
2024/02/21 02:13:41;;;;;;;2.58;0.73;;;;;;;9.26;79.08;100149.19;4988117;28;20077;-49
2024/02/21 02:16:08;;;;;;;3.03;1.15;;;;;;;9.29;79.41;100152.66;4987996;28;20054;-47
2024/02/21 02:18:35;;;;;;;2.42;1.10;;;;;;;9.26;79.05;100150.94;4983680;28;20408;-46
2024/02/21 02:21:05;;;;;;;7.03;2.80;;;;;;;9.29;79.23;100152.66;4989172;28;20086;-46
2024/02/21 02:23:33;;;;;;;3.80;0.80;;;;;;;9.25;79.15;100152.66;4986949;28;20127;-48
2024/02/21 02:26:01;;;;;;;4.20;1.63;;;;;;;9.26;79.15;100151.78;4997112;28;20050;-46
2024/02/21 02:28:29;;;;;;;1.95;0.90;;;;;;;9.25;79.92;100147.47;4987832;28;20078;-46
2024/02/21 02:30:56;;;;;;;2.35;2.15;;;;;;;9.25;79.64;100149.19;4987973;28;20050;-47
2024/02/21 02:33:23;;;;;;;5.95;2.78;;;;;;;9.28;79.50;100144.03;4988180;28;20054;-46
2024/02/21 02:35:52;;;;;;;2.60;2.40;;;;;;;9.30;79.37;100129.41;4986261;28;20758;-47
2024/02/21 02:38:19;;;;;;;4.82;2.42;;;;;;;9.27;79.82;100131.97;4978848;28;20046;-45
2024/02/21 02:40:47;;;;;;;2.35;0.57;;;;;;;9.28;79.81;100119.94;4982427;28;20062;-46
2024/02/21 02:43:14;;;;;;;6.15;0.93;;;;;;;9.28;79.98;100112.19;4986456;28;20046;-49
2024/02/21 02:45:42;;;;;;;2.92;2.35;;;;;;;9.26;79.92;100110.44;4987546;28;20050;-46
2024/02/21 02:48:08;;;;;;;1.85;1.48;;;;;;;9.24;80.16;100091.50;4986403;28;20050;-47
2024/02/21 02:50:35;;;;;;;3.55;2.90;;;;;;;9.28;79.92;100088.91;4987684;28;20058;-44
2024/02/21 02:53:03;;;;;;;3.88;3.45;;;;;;;9.28;79.72;100086.34;4987710;28;20049;-46
2024/02/21 02:55:30;;;;;;;4.53;2.97;;;;;;;9.29;80.25;100064.78;4985731;28;20050;-48
2024/02/21 02:57:57;;;;;;;5.00;2.35;;;;;;;9.28;80.21;100052.72;4987678;28;20046;-45
2024/02/21 03:00:24;;;;;;;3.05;0.88;;;;;;;9.26;80.20;100045.81;4982377;28;21398;-45
2024/02/21 03:02:51;;;;;;;2.00;0.73;;;;;;;9.26;80.05;100038.06;4983653;28;20479;-47
2024/02/21 03:05:20;;;;;;;2.35;2.10;;;;;;;9.25;80.73;100028.59;4982821;28;20050;-45
2024/02/21 03:07:48;;;;;;;1.88;1.08;;;;;;;9.26;80.36;100022.56;4985514;28;20050;-50
2024/02/21 03:10:16;;;;;;;2.30;0.60;;;;;;;9.25;80.97;100017.38;4985859;28;20129;-47
2024/02/21 03:12:44;;;;;;;3.22;2.28;;;;;;;9.26;80.69;100025.16;4988186;28;20049;-46
2024/02/21 03:15:12;;;;;;;5.13;2.38;;;;;;;9.26;80.51;100012.22;4984386;28;20084;-47
2024/02/21 03:17:40;;;;;;;3.30;0.85;;;;;;;9.28;80.31;100016.56;4986118;28;20046;-44
2024/02/21 03:20:09;;;;;;;1.70;0.70;;;;;;;9.31;80.41;100003.63;4984352;28;20062;-49
2024/02/21 03:22:37;;;;;;;3.00;0.50;;;;;;;9.26;80.83;99988.97;4987968;28;20050;-43
2024/02/21 03:25:06;;;;;;;1.77;0.75;;;;;;;9.26;81.09;99988.97;4986713;28;20385;-46
2024/02/21 03:27:33;;;;;;;3.97;1.55;;;;;;;9.26;81.23;99981.19;4991454;28;20058;-43
2024/02/21 03:30:00;;;;;;;7.45;1.20;;;;;;;9.29;81.15;99982.09;4987616;28;20049;-45
2024/02/21 03:32:28;;;;;;;5.63;1.00;;;;;;;9.29;80.78;99979.50;4987117;28;20054;-45
2024/02/21 03:34:55;;;;;;;4.80;2.50;;;;;;;9.25;81.34;99971.75;4985583;28;20077;-49
2024/02/21 03:37:22;;;;;;;2.17;1.20;;;;;;;9.25;81.51;99971.75;4987075;28;20145;-44
2024/02/21 03:39:48;;;;;;;3.67;0.93;;;;;;;9.26;81.51;99962.28;4987272;28;20100;-47
2024/02/21 03:42:15;;;;;;;5.13;2.22;;;;;;;9.25;81.05;99961.41;4986925;28;20093;-43
2024/02/21 03:44:42;;;;;;;9.85;1.10;;;;;;;9.21;81.66;99949.34;4987695;28;20061;-46
2024/02/21 03:47:10;;;;;;;2.42;2.22;;;;;;;9.17;82.08;99947.59;4986436;28;20050;-47
2024/02/21 03:49:37;;;;;;;7.68;1.00;;;;;;;9.21;81.59;99923.50;4985360;28;20081;-49
2024/02/21 03:52:04;;;;;;;4.40;0.82;;;;;;;9.15;82.24;99920.88;4982011;28;20064;-47
2024/02/21 03:54:31;;;;;;;2.22;0.68;;;;;;;9.11;82.00;99908.81;4987121;28;20053;-45
2024/02/21 03:56:57;;;;;;;5.38;0.68;;;;;;;9.08;82.95;99922.63;4985985;28;20046;-45
2024/02/21 03:59:24;;;;;;;2.85;2.30;;;;;;;9.10;82.81;99917.44;4986839;28;20134;-50
2024/02/21 04:01:52;;;;;;;3.75;0.47;;;;;;;9.06;82.40;99902.81;4979467;28;20047;-51
2024/02/21 04:04:20;;;;;;;3.60;1.05;;;;;;;9.08;82.41;99907.09;4981530;28;20050;-46
2024/02/21 04:06:49;;;;;;;2.67;1.52;;;;;;;9.02;83.02;99906.25;4984180;28;20491;-48
2024/02/21 04:09:16;;;;;;;3.53;0.80;;;;;;;9.03;82.43;99902.78;4986484;28;20049;-45
2024/02/21 04:11:46;;;;;;;2.05;1.95;;;;;;;8.96;82.79;99892.47;4987153;28;20046;-48
2024/02/21 04:14:12;;;;;;;4.82;0.75;;;;;;;8.98;82.16;99884.69;4990289;28;20053;-44
2024/02/21 04:16:39;;;;;;;4.80;2.92;;;;;;;8.95;83.04;99880.41;4990125;28;20047;-47
2024/02/21 04:19:07;;;;;;;2.92;0.60;;;;;;;8.88;82.86;99870.91;4990536;28;20633;-46
2024/02/21 04:21:35;;;;;;;2.45;0.52;;;;;;;8.91;82.51;99870.91;4991839;28;20125;-50
2024/02/21 04:24:03;;;;;;;1.75;1.15;;;;;;;8.91;82.97;99868.34;4984287;28;20042;-49
2024/02/21 04:26:30;;;;;;;2.92;0.77;;;;;;;8.91;82.64;99867.50;4991122;28;20054;-48
2024/02/21 04:28:57;;;;;;;2.83;1.13;;;;;;;8.88;83.00;99858.00;4988420;28;20157;-46
2024/02/21 04:31:24;;;;;;;3.42;0.95;;;;;;;8.89;82.81;99844.25;4991193;28;20112;-44
2024/02/21 04:33:51;;;;;;;2.25;2.05;;;;;;;8.84;82.66;99825.28;4989327;28;20455;-52
2024/02/21 04:36:20;;;;;;;4.55;1.05;;;;;;;8.71;82.68;99814.94;4990171;28;20089;-48
2024/02/21 04:38:46;;;;;;;2.10;1.00;;;;;;;8.73;82.51;99818.41;4990312;28;20053;-52
2024/02/21 04:41:14;;;;;;;5.55;1.27;;;;;;;8.79;82.26;99811.50;4987977;28;20062;-48
2024/02/21 04:43:41;;;;;;;3.25;1.63;;;;;;;8.70;82.38;99810.66;4987275;28;20589;-53
2024/02/21 04:46:08;;;;;;;8.63;1.20;;;;;;;8.68;82.61;99804.59;4986575;28;20634;-51
2024/02/21 04:48:34;;;;;;;3.47;3.10;;;;;;;8.74;82.39;99814.97;4990087;28;20467;-51
2024/02/21 04:51:01;;;;;;;2.95;2.65;;;;;;;8.75;82.63;99810.66;4989658;28;20462;-50
2024/02/21 04:53:28;;;;;;;3.97;2.53;;;;;;;8.75;82.21;99815.81;4989799;28;20472;-48
2024/02/21 04:55:54;;;;;;;2.55;0.52;;;;;;;8.71;82.50;99814.94;4984354;28;20054;-48
2024/02/21 04:58:21;;;;;;;3.33;2.60;;;;;;;8.71;82.46;99799.44;4988316;28;20511;-52
2024/02/21 05:00:48;;;;;;;2.85;0.95;;;;;;;8.67;82.08;99796.84;4983164;28;20496;-51
2024/02/21 05:03:15;;;;;;;4.18;2.58;;;;;;;8.62;82.40;99786.53;4989258;28;20065;-49
2024/02/21 05:05:42;;;;;;;3.42;1.17;;;;;;;8.59;82.28;99773.63;4986146;28;20671;-47
2024/02/21 05:08:10;;;;;;;1.75;0.70;;;;;;;8.60;82.43;99759.84;4987896;28;20119;-48
2024/02/21 05:10:37;;;;;;;2.15;0.90;;;;;;;8.51;82.90;99754.66;4987941;28;20056;-48
2024/02/21 05:13:04;;;;;;;3.63;2.33;;;;;;;8.54;82.98;99741.78;4989559;28;20050;-47
2024/02/21 05:15:33;;;;;;;1.73;0.85;;;;;;;8.52;82.93;99730.56;4985045;28;20065;-44
2024/02/21 05:18:01;;;;;;;3.25;2.80;;;;;;;8.47;83.24;99726.25;4990164;28;20050;-48
2024/02/21 05:20:28;;;;;;;2.95;2.22;;;;;;;8.44;82.52;99703.03;4992532;28;20500;-47
2024/02/21 05:22:56;;;;;;;3.03;0.88;;;;;;;8.45;82.56;99688.41;4987245;28;20054;-46
2024/02/21 05:25:22;;;;;;;0.85;0.50;;;;;;;8.42;82.61;99697.00;4989434;28;20070;-45
2024/02/21 05:27:53;;;;;;;4.72;0.93;;;;;;;8.44;82.64;99695.28;4980732;28;20128;-48
2024/02/21 05:30:20;;;;;;;;;;;;;;;8.31;82.85;99685.81;4993724;28;20081;-47
2024/02/21 05:32:46;;;;;;;5.43;2.47;;;;;;;8.34;83.16;99688.38;4989658;28;19922;-47
2024/02/21 05:35:14;;;;;;;2.90;0.88;;;;;;;8.33;83.50;99679.81;4986539;28;20125;-47
2024/02/21 05:37:41;;;;;;;1.55;0.50;;;;;;;8.35;82.53;99674.66;4988757;28;20551;-44
2024/02/21 05:40:09;;;;;;;3.00;1.50;;;;;;;8.32;82.90;99666.91;4989016;28;20058;-47
2024/02/21 05:42:36;;;;;;;2.22;0.88;;;;;;;8.30;83.06;99661.72;4986744;28;20057;-49
2024/02/21 05:45:04;;;;;;;3.13;2.63;;;;;;;8.36;82.43;99647.97;4988636;28;20050;-47
2024/02/21 05:47:30;;;;;;;0.73;0.38;;;;;;;8.33;82.94;99640.22;4989394;28;20046;-49
2024/02/21 05:49:57;;;;;;;3.78;2.67;;;;;;;8.35;83.08;99635.94;4987752;28;20076;-48
2024/02/21 05:52:24;;;;;;;3.25;0.77;;;;;;;8.35;82.50;99635.94;4988887;28;20050;-44
2024/02/21 05:54:51;;;;;;;2.20;2.00;;;;;;;8.33;83.23;99627.31;4987706;28;20066;-45
2024/02/21 05:57:18;;;;;;;3.17;2.92;;;;;;;8.39;82.73;99619.59;4987475;28;20051;-44
2024/02/21 05:59:45;;;;;;;2.38;2.10;;;;;;;8.42;82.74;99618.72;4986281;28;20595;-47
2024/02/21 06:02:12;;;;;;;2.05;1.70;;;;;;;8.35;82.50;99604.97;4987903;28;20054;-48
2024/02/21 06:04:40;;;;;;;3.53;2.97;;;;;;;8.40;83.60;99598.06;4988285;28;20614;-46
2024/02/21 06:07:06;;;;;;;2.70;2.03;;;;;;;8.35;83.58;99582.59;4988777;28;20054;-49
2024/02/21 06:09:34;;;;;;;7.45;3.20;;;;;;;8.41;83.70;99583.47;4987473;28;20050;-48
2024/02/21 06:12:01;;;;;;;3.25;0.75;;;;;;;8.42;83.30;99572.25;4989126;28;20073;-45
2024/02/21 06:14:28;;;;;;;2.00;1.90;;;;;;;8.38;83.54;99561.09;4988353;28;20054;-45
2024/02/21 06:16:54;;;;;;;5.18;2.25;;;;;;;8.38;83.57;99558.53;4984651;28;20065;-50
2024/02/21 06:19:21;;;;;;;3.53;2.45;;;;;;;8.41;83.50;99548.16;4988548;28;20100;-44
2024/02/21 06:21:48;;;;;;;3.33;3.00;;;;;;;8.38;83.64;99543.03;4982891;28;20078;-48
2024/02/21 06:24:16;;;;;;;3.50;1.23;;;;;;;8.35;83.50;99527.56;4984305;28;20496;-44
2024/02/21 06:26:43;;;;;;;1.42;0.68;;;;;;;8.38;83.64;99537.88;4987398;28;20475;-45
2024/02/21 06:29:11;;;;;;;4.85;2.20;;;;;;;8.34;83.61;99520.66;4985403;28;20051;-47
2024/02/21 06:31:38;;;;;;;6.10;2.78;;;;;;;8.41;83.97;99516.38;4987930;28;20089;-50
2024/02/21 06:34:05;;;;;;;3.80;3.53;;;;;;;8.45;83.90;99493.09;4985097;28;20528;-46
2024/02/21 06:36:31;;;;;;;2.83;1.23;;;;;;;8.41;84.15;99478.50;4988110;28;20404;-46
2024/02/21 06:38:59;;;;;;;4.78;3.08;;;;;;;8.41;84.09;99483.66;4988325;28;20065;-45
2024/02/21 06:41:26;;;;;;;5.05;2.78;;;;;;;8.41;84.31;99475.91;4981393;28;20122;-45
2024/02/21 06:43:52;;;;;;;3.40;1.33;;;;;;;8.35;84.45;99460.47;4986598;28;20081;-44
2024/02/21 06:46:28;;;;;;;2.58;2.38;;;;;;;8.44;84.49;99460.41;4987862;28;20133;-50
2024/02/21 06:48:57;;;;;;;2.35;1.83;;;;;;;8.41;84.31;99455.25;4983766;28;20065;-52
2024/02/21 06:51:24;;;;;;;3.63;2.38;;;;;;;8.43;84.50;99448.38;4986147;28;20808;-43
2024/02/21 06:53:52;;;;;;;3.33;2.53;;;;;;;8.44;84.38;99444.94;4988277;28;20054;-47
2024/02/21 06:56:19;;;;;;;2.67;0.90;;;;;;;8.40;84.58;99432.03;4984756;28;20050;-45
2024/02/21 06:58:45;;;;;;;11.18;1.33;;;;;;;8.41;84.41;99424.28;4981739;28;20060;-49
2024/02/21 07:01:13;;;;;;;4.75;0.98;;;;;;;8.35;84.53;99430.34;4988018;28;20054;-51
2024/02/21 07:03:40;;;;;;;3.95;0.90;;;;;;;8.44;84.28;99420.88;4987435;28;20100;-46
2024/02/21 07:06:07;;;;;;;5.90;1.45;;;;;;;8.44;84.74;99403.66;4988104;28;20050;-47
2024/02/21 07:08:35;;;;;;;5.22;2.83;;;;;;;8.39;84.60;99399.38;4986113;28;20176;-45
2024/02/21 07:11:03;;;;;;;2.85;2.58;;;;;;;8.41;85.09;99392.50;4991634;28;20060;-47
2024/02/21 07:13:30;;;;;;;5.10;3.10;;;;;;;8.32;85.20;99388.22;4985459;28;20081;-47
2024/02/21 07:15:57;;;;;;;1.73;0.52;;;;;;;8.33;84.85;99388.22;4985655;28;20057;-47
2024/02/21 07:18:25;;;;;;;4.57;3.40;;;;;;;8.22;85.36;99377.06;4982442;28;20050;-47
2024/02/21 07:20:52;;;;;;;3.05;2.53;;;;;;;8.31;85.07;99381.34;4985898;28;20089;-47
2024/02/21 07:23:19;;;;;;;4.38;1.00;;;;;;;8.39;85.48;99363.25;4986481;28;20518;-43
2024/02/21 07:25:45;;;;;;;3.50;3.20;;;;;;;8.31;85.11;99355.56;4988775;28;20062;-44
2024/02/21 07:28:13;;;;;;;3.17;2.65;;;;;;;8.32;85.88;99357.25;4989729;28;20049;-48
2024/02/21 07:30:40;;;;;;;2.15;0.60;;;;;;;8.38;85.37;99341.75;4993152;28;20054;-44
2024/02/21 07:33:07;;;;;;;3.60;0.77;;;;;;;8.30;85.43;99338.34;4988275;28;20050;-46
2024/02/21 07:35:34;;;;;;;2.25;2.13;;;;;;;8.38;85.22;99331.44;4987542;28;20058;-46
2024/02/21 07:38:00;;;;;;;6.20;3.03;;;;;;;8.39;85.08;99327.13;4986100;28;20046;-50
2024/02/21 07:40:27;;;;;;;5.15;2.58;;;;;;;8.40;85.27;99319.38;4979587;28;20678;-46
2024/02/21 07:42:57;;;;;;;3.47;2.25;;;;;;;8.38;85.25;99309.94;4986999;28;20042;-48
2024/02/21 07:45:24;;;;;;;3.65;1.75;;;;;;;8.39;85.63;99312.50;4981639;28;20042;-48
2024/02/21 07:47:52;;;;;;;5.20;1.98;;;;;;;8.44;85.50;99289.25;4986640;28;20547;-47
2024/02/21 07:50:19;;;;;;;5.13;1.35;;;;;;;8.41;85.49;99284.94;4985686;28;20042;-47
2024/02/21 07:52:46;;;;;;;2.33;0.75;;;;;;;8.42;85.99;99286.69;4986954;28;20065;-50
2024/02/21 07:55:12;;;;;;;2.80;2.58;;;;;;;8.39;86.14;99288.41;4987124;28;20451;-47
2024/02/21 07:57:41;;;;;;;5.53;2.13;;;;;;;8.38;85.66;99278.97;4986704;28;20054;-51
2024/02/21 08:00:11;;;;;;;3.00;2.80;;;;;;;8.42;85.74;99281.53;4986485;28;20046;-47
2024/02/21 08:02:39;;;;;;;2.45;2.25;;;;;;;8.38;86.28;99263.47;4981885;28;20101;-51
2024/02/21 08:05:07;;;;;;;4.05;2.60;;;;;;;8.40;86.07;99272.91;4986537;28;20050;-51
2024/02/21 08:07:35;;;;;;;5.72;2.88;;;;;;;8.41;85.70;99248.81;4986940;28;20046;-47
2024/02/21 08:10:02;;;;;;;2.53;2.33;;;;;;;8.41;85.53;99248.81;4984581;28;20050;-48
2024/02/21 08:12:29;;;;;;;3.42;2.83;;;;;;;8.36;86.43;99246.28;4987195;28;20141;-49
2024/02/21 08:14:55;;;;;;;3.47;2.40;;;;;;;8.42;86.05;99245.38;4983390;28;20130;-43
2024/02/21 08:17:26;;;;;;;3.30;2.42;;;;;;;8.45;86.10;99241.94;4987120;28;20499;-50
2024/02/21 08:19:53;;;;;;;1.63;0.90;;;;;;;8.38;86.59;99233.38;4986562;28;20075;-47
2024/02/21 08:22:19;;;;;;;2.05;0.80;;;;;;;8.40;86.46;99218.72;4986259;28;20046;-48
2024/02/21 08:24:47;;;;;;;3.00;2.75;;;;;;;8.46;86.28;99216.13;4984493;28;20049;-44
2024/02/21 08:27:14;;;;;;;3.47;3.13;;;;;;;8.39;86.76;99209.28;4986230;28;20047;-47
2024/02/21 08:29:41;;;;;;;1.23;0.40;;;;;;;8.44;86.70;99202.34;4986254;28;20624;-45
2024/02/21 08:32:08;;;;;;;0.98;0.40;;;;;;;8.49;86.46;99200.59;4986349;28;20049;-49
2024/02/21 08:34:35;;;;;;;0.73;0.63;;;;;;;8.52;85.88;99193.69;4987023;28;20058;-46
2024/02/21 08:37:03;;;;;;;2.88;2.67;;;;;;;8.47;86.88;99196.31;4986876;28;20043;-50
2024/02/21 08:39:30;;;;;;;0.90;0.60;;;;;;;8.51;86.33;99176.50;4985894;28;20423;-48
2024/02/21 08:41:57;;;;;;;0.82;0.63;;;;;;;8.52;86.62;99178.22;4985574;28;20060;-43
2024/02/21 08:44:27;;;;;;;2.33;0.60;;;;;;;8.56;86.51;99154.97;4984520;28;20150;-51
2024/02/21 08:46:54;;;;;;;3.10;2.90;;;;;;;8.54;86.45;99161.88;4986142;28;20047;-50
2024/02/21 08:49:22;;;;;;;0.80;0.45;;;;;;;8.53;86.83;99151.53;4985572;28;20074;-47
2024/02/21 08:51:49;;;;;;;2.10;0.45;;;;;;;8.53;86.47;99136.03;4983841;28;20149;-48
2024/02/21 08:54:16;;;;;;;2.53;2.33;;;;;;;8.58;86.32;99140.31;4980123;28;20054;-45
2024/02/21 08:56:43;;;;;;;2.08;0.95;;;;;;;8.53;87.00;99134.34;4986659;28;20051;-50
2024/02/21 08:59:10;;;;;;;0.50;0.43;;;;;;;8.63;86.30;99129.97;4988100;28;20121;-50
2024/02/21 09:01:37;;;;;;;3.88;0.40;;;;;;;8.64;86.58;99116.19;4986817;28;20704;-51
2024/02/21 09:04:05;;;;;;;0.70;0.60;;;;;;;8.64;86.59;99116.19;4989650;28;20043;-50
2024/02/21 09:06:33;;;;;;;1.60;0.50;;;;;;;8.62;87.04;99102.44;4985171;28;20651;-48
2024/02/21 09:09:00;;;;;;;0.80;0.60;;;;;;;8.59;86.34;99102.47;4990259;28;20489;-45
2024/02/21 09:11:27;;;;;;;1.63;0.40;;;;;;;8.66;86.35;99087.78;4984112;28;20136;-48
2024/02/21 09:13:55;;;;;;;0.93;0.40;;;;;;;8.69;86.48;99074.84;4985490;28;20074;-49
2024/02/21 09:16:22;;;;;;;0.75;0.43;;;;;;;8.70;86.04;99085.16;4986237;28;20419;-47
2024/02/21 09:18:50;;;;;;;0.40;0.38;;;;;;;8.73;86.42;99069.63;4986976;28;20112;-48
2024/02/21 09:21:17;;;;;;;0.93;0.50;;;;;;;8.67;86.75;99064.53;4990381;28;20078;-46
2024/02/21 09:23:45;;;;;;;1.88;1.77;;;;;;;8.70;86.50;99058.47;4994540;28;20053;-50
2024/02/21 09:26:15;;;;;;;1.20;0.40;;;;;;;8.68;86.74;99055.91;4983677;28;20047;-47
2024/02/21 09:28:44;;;;;;;2.22;0.60;;;;;;;8.70;86.78;99049.00;4989539;28;20054;-50
2024/02/21 09:31:10;;;;;;;2.28;2.00;;;;;;;8.70;86.78;99038.69;4986859;28;20051;-44
2024/02/21 09:33:37;;;;;;;0.85;0.57;;;;;;;8.74;86.54;99034.31;4990025;28;20050;-49
2024/02/21 09:36:06;;;;;;;2.13;2.03;;;;;;;8.73;86.71;99027.47;4991482;28;20050;-50
2024/02/21 09:38:33;;;;;;;2.17;2.08;;;;;;;8.70;86.07;99023.19;4988905;28;20702;-50
2024/02/21 09:41:18;;;;;;;0.50;0.50;;;;;;;8.72;86.63;99013.69;4986701;28;20073;-47
2024/02/21 09:43:53;;;;;;;2.15;2.05;;;;;;;8.75;86.70;99010.25;4989240;28;20133;-47
2024/02/21 09:46:29;;;;;;;1.55;1.48;;;;;;;8.74;86.39;99013.66;4984175;28;20435;-47
2024/02/21 09:51:36;;;;;;;1.25;0.98;;;;;;;8.76;86.67;98980.09;5052486;28;20400;-47
2024/02/21 09:54:04;;;;;;;0.90;0.68;;;;;;;8.72;86.67;98969.78;5022559;28;20136;-47
2024/02/21 09:56:42;;;;;;;2.42;1.00;;;;;;;8.77;86.44;98980.06;5017347;28;20491;-46
2024/02/21 09:59:09;;;;;;;1.02;0.88;;;;;;;8.74;86.37;98975.81;5021126;28;20447;-48
2024/02/21 10:01:37;;;;;;;2.17;1.08;;;;;;;8.81;86.20;98957.66;5012723;28;20148;-50
2024/02/21 10:04:06;;;;;;;0.93;0.73;;;;;;;8.84;86.80;98947.28;5018640;28;20054;-46
2024/02/21 10:06:33;;;;;;;1.02;0.82;;;;;;;8.85;86.12;98954.16;5020090;28;20103;-45
2024/02/21 10:09:01;;;;;;;1.48;0.68;;;;;;;8.84;86.11;98939.53;5012950;28;20570;-46
2024/02/21 10:11:29;;;;;;;0.98;0.55;;;;;;;8.87;86.27;98927.44;5020069;28;20053;-49
2024/02/21 10:16:42;;;;;;;2.40;2.25;;;;;;;8.80;86.69;98906.88;5046645;27;20415;-49
2024/02/21 10:19:24;;;;;;;2.05;1.85;;;;;;;8.74;86.69;98888.03;5011903;28;20415;-51
2024/02/21 10:24:42;;;;;;;0.82;0.82;;;;;;;8.74;86.74;98872.53;5080011;27;20406;-49
2024/02/21 10:27:11;;;;;;;0.50;0.50;;;;;;;8.84;86.31;98869.81;5030849;28;20099;-48
2024/02/21 10:29:39;;;;;;;1.48;0.57;;;;;;;8.81;86.31;98849.22;5045016;28;20057;-43
2024/02/21 10:32:08;;;;;;;0.60;0.60;;;;;;;8.80;85.90;98842.34;5048266;28;20053;-47
2024/02/21 10:34:36;;;;;;;0.70;0.70;;;;;;;8.86;86.38;98826.75;5044468;28;20054;-47
2024/02/21 10:37:03;;;;;;;1.30;0.63;;;;;;;8.81;86.58;98813.09;5044129;28;20045;-51
2024/02/21 10:39:33;;;;;;;0.73;0.52;;;;;;;8.80;86.46;98801.03;5054708;28;20049;-45
2024/02/21 10:42:03;;;;;;;0.77;0.50;;;;;;;8.83;86.53;98800.97;5047432;28;20106;-48
2024/02/21 10:44:33;;;;;;;0.73;0.60;;;;;;;8.79;86.57;98801.91;5045925;28;20045;-42
2024/02/21 10:47:03;;;;;;;0.63;0.52;;;;;;;8.78;86.80;98797.63;5042911;28;20057;-48
2024/02/21 10:49:32;;;;;;;1.00;0.65;;;;;;;8.80;86.88;98798.44;5049001;28;20501;-47
2024/02/21 10:55:08;;;;;;;1.70;1.27;;;;;;;9.11;85.12;98774.69;5070522;27;20400;-54
2024/02/21 10:57:38;;;;;;;2.17;2.08;;;;;;;8.96;86.22;98771.53;5039108;28;20090;-50
2024/02/21 11:00:10;;;;;;;2.17;2.08;;;;;;;8.88;86.24;98770.75;5030432;28;20057;-48
2024/02/21 11:02:37;;;;;;;1.40;1.38;;;;;;;8.94;86.31;98768.09;5035454;28;20450;-47
2024/02/21 11:05:04;;;;;;;1.85;1.65;;;;;;;8.89;86.57;98759.59;5027801;28;20573;-45
2024/02/21 11:07:32;;;;;;;2.17;2.08;;;;;;;8.89;86.15;98754.41;5034522;28;20056;-44
2024/02/21 11:10:00;;;;;;;0.52;0.35;;;;;;;8.95;86.57;98749.13;5028388;28;20474;-49
2024/02/21 11:12:27;;;;;;;2.15;2.05;;;;;;;8.98;86.42;98743.91;5034024;28;20052;-48
2024/02/21 11:15:06;;;;;;;0.50;0.50;;;;;;;8.95;86.42;98725.06;5030451;28;20128;-50
2024/02/21 11:17:32;;;;;;;1.73;1.63;;;;;;;8.97;86.45;98725.88;5026148;28;20041;-47
2024/02/21 11:20:13;;;;;;;2.63;2.42;;;;;;;8.94;86.96;98726.78;5037214;28;20052;-46
2024/02/21 11:22:42;;;;;;;1.65;1.55;;;;;;;9.00;86.75;98703.44;5011153;28;20046;-48
2024/02/21 11:25:12;;;;;;;1.80;1.70;;;;;;;8.99;86.57;98704.28;5018734;28;20061;-49
2024/02/21 11:27:45;;;;;;;1.15;1.13;;;;;;;8.96;86.59;98677.69;5030677;28;20414;-52
2024/02/21 11:30:14;;;;;;;1.77;1.67;;;;;;;9.03;86.72;98683.59;5040655;28;20053;-48
2024/02/21 11:32:40;;;;;;;2.55;2.45;;;;;;;9.05;87.05;98672.34;5035368;28;20084;-48
2024/02/21 11:35:19;;;;;;;0.98;0.98;;;;;;;9.05;86.26;98656.00;5026241;28;20056;-50
2024/02/21 11:37:46;;;;;;;1.15;1.15;;;;;;;9.08;87.02;98671.44;5034307;28;20052;-50
2024/02/21 11:40:14;;;;;;;1.60;1.52;;;;;;;9.11;86.33;98651.56;5029218;28;20049;-48
2024/02/21 11:42:41;;;;;;;0.43;0.30;;;;;;;9.19;86.55;98648.81;5034135;28;20128;-53
2024/02/21 11:45:09;;;;;;;1.80;1.67;;;;;;;9.18;86.42;98635.97;5037433;28;20048;-55
2024/02/21 11:47:40;;;;;;;2.20;2.10;;;;;;;9.15;86.20;98631.69;5034794;28;20878;-49
2024/02/21 11:50:10;;;;;;;0.70;0.40;;;;;;;9.14;86.07;98614.50;5033463;28;20505;-48
2024/02/21 11:52:38;;;;;;;2.08;1.88;;;;;;;9.21;85.95;98618.66;5025700;28;20553;-49